First Clarity — A8RM8 — position and weather

sailwx.info

Track history (hours):
 
Tides and Currents Weather Stations Pressure Air Temp Water Temp Dewpoint Dewpoint Depression Visibility Wind Speed Wind Dir Waves Ship Positions

First Clarity

Last reported at 2018-Apr-18 18:37 UTC. Time now 2018-Apr-19 21:34 UTC.
Position N 33°11' E 129°18'.

Length 104 m; draft 4.9 m.

Type: Cargo ship. MMSI: 636014129.

Date/timePositionNaut miles runAvg speedWind from/ knotsBaromVisibWave heightAir tempDewpointWater temp
2018-Apr-18 18:37N 33°11' E 129°18'211.7
2018-Apr-18 18:24N 33°14' E 129°16'511.6
2018-Apr-18 18:00N 33°18' E 129°14'1211.9
2018-Apr-18 17:00N 33°28' E 129°08'611.3
2018-Apr-18 16:30N 33°34' E 129°05'611.0
2018-Apr-18 15:58N 33°39' E 129°02'510.8
2018-Apr-18 15:30N 33°43' E 128°59'610.8
2018-Apr-18 14:58N 33°48' E 128°56'711.0
2018-Apr-18 14:20N 33°55' E 128°52'411.2
2018-Apr-18 13:59N 33°58' E 128°50'810.4
2018-Apr-18 13:14N 34°05' E 128°46'311.4
2018-Apr-18 12:56N 34°08' E 128°44'2110.3
2018-Apr-18 10:56N 34°22' E 128°26'  
Track history (hours):
 
Tides and Currents Weather Stations Pressure Air Temp Water Temp Dewpoint Dewpoint Depression Visibility Wind Speed Wind Dir Waves Ship Positions

First Clarity

Last reported at 2018-Apr-18 18:37 UTC. Time now 2018-Apr-19 21:34 UTC.
Position N 33°11' E 129°18'.

Length 104 m; draft 4.9 m.

Type: Cargo ship. MMSI: 636014129.

Date/timePositionNaut miles runAvg speedWind from/ knotsBaromVisibWave heightAir tempDewpointWater temp
2018-Apr-18 18:37N 33°11' E 129°18'211.7
2018-Apr-18 18:24N 33°14' E 129°16'511.6
2018-Apr-18 18:00N 33°18' E 129°14'1211.9
2018-Apr-18 17:00N 33°28' E 129°08'611.3
2018-Apr-18 16:30N 33°34' E 129°05'611.0
2018-Apr-18 15:58N 33°39' E 129°02'510.8
2018-Apr-18 15:30N 33°43' E 128°59'610.8
2018-Apr-18 14:58N 33°48' E 128°56'711.0
2018-Apr-18 14:20N 33°55' E 128°52'411.2
2018-Apr-18 13:59N 33°58' E 128°50'810.4
2018-Apr-18 13:14N 34°05' E 128°46'311.4
2018-Apr-18 12:56N 34°08' E 128°44'2110.3
2018-Apr-18 10:56N 34°22' E 128°26'  

Dump ship's entire track history